createdAt,value
2022-12-20T00:01:28.505Z,100143.00
2022-12-20T00:03:56.694Z,100124.28
2022-12-20T00:06:24.388Z,100140.34
2022-12-20T00:08:55.882Z,100127.63
2022-12-20T00:11:22.838Z,100131.44
2022-12-20T00:13:49.420Z,100135.16
2022-12-20T00:16:18.502Z,100127.94
2022-12-20T00:18:45.371Z,100134.84
2022-12-20T00:21:13.768Z,100116.16
2022-12-20T00:23:41.621Z,100118.19
2022-12-20T00:26:12.274Z,100110.22
2022-12-20T00:28:39.882Z,100111.16
2022-12-20T00:31:08.047Z,100112.00
2022-12-20T00:33:36.072Z,100109.03
2022-12-20T00:36:03.369Z,100099.63
2022-12-20T00:38:30.076Z,100112.25
2022-12-20T00:41:10.730Z,100106.59
2022-12-20T00:43:38.522Z,100108.19
2022-12-20T00:46:06.021Z,100115.44
2022-12-20T00:48:33.076Z,100128.16
2022-12-20T00:51:01.549Z,100115.44
2022-12-20T00:53:28.721Z,100114.69
2022-12-20T00:55:55.365Z,100114.16
2022-12-20T00:58:22.218Z,100098.66
2022-12-20T01:00:55.565Z,100110.41
2022-12-20T01:03:23.471Z,100102.00
2022-12-20T01:06:01.484Z,100094.28
2022-12-20T01:08:30.850Z,100096.63
2022-12-20T01:11:06.543Z,100101.94
2022-12-20T01:13:35.138Z,100100.81
2022-12-20T01:16:07.533Z,100107.44
2022-12-20T01:18:34.287Z,100108.28
2022-12-20T01:21:05.328Z,100101.38
2022-12-20T01:23:32.335Z,100104.03
2022-12-20T01:26:00.730Z,100095.31
2022-12-20T01:28:28.620Z,100082.00
2022-12-20T01:30:55.600Z,100079.75
2022-12-20T01:33:22.432Z,100097.13
2022-12-20T01:36:00.180Z,100100.09
2022-12-20T01:38:27.316Z,100081.44
2022-12-20T01:40:54.914Z,100091.00
2022-12-20T01:43:22.381Z,100092.81
2022-12-20T01:45:49.332Z,100097.59
2022-12-20T01:48:19.947Z,100088.78
2022-12-20T01:50:46.810Z,100080.41
2022-12-20T01:53:13.633Z,100078.16
2022-12-20T01:55:40.409Z,100075.84
2022-12-20T01:58:09.420Z,100068.59
2022-12-20T02:00:37.327Z,100059.56
2022-12-20T02:03:08.812Z,100059.00
2022-12-20T02:05:37.519Z,100071.59
2022-12-20T02:08:04.972Z,100071.94
2022-12-20T02:10:54.605Z,100070.84
2022-12-20T02:13:43.695Z,100056.38
2022-12-20T02:16:15.337Z,100077.81
2022-12-20T02:18:47.247Z,100062.34
2022-12-20T02:21:28.770Z,100063.31
2022-12-20T02:24:32.574Z,100054.03
2022-12-20T02:27:17.963Z,100036.59
2022-12-20T02:30:26.955Z,100038.25
2022-12-20T02:33:05.444Z,100028.75
2022-12-20T02:35:36.126Z,100029.66
2022-12-20T02:38:28.335Z,100037.69
2022-12-20T02:41:02.413Z,100041.72
2022-12-20T02:43:48.925Z,100041.81
2022-12-20T02:46:16.919Z,100038.53
2022-12-20T02:48:45.605Z,100025.41
2022-12-20T02:51:12.774Z,100017.38
2022-12-20T02:53:42.680Z,100022.22
2022-12-20T02:56:22.225Z,100012.56
2022-12-20T02:58:55.690Z,100018.88
2022-12-20T03:01:36.451Z,100022.63
2022-12-20T03:04:04.041Z,100036.09
2022-12-20T03:06:30.835Z,100031.59
2022-12-20T03:08:57.878Z,100021.09
2022-12-20T03:11:27.465Z,100030.00
2022-12-20T03:13:54.040Z,100023.38
2022-12-20T03:16:20.801Z,100022.16
2022-12-20T03:18:48.117Z,100021.38
2022-12-20T03:21:14.898Z,100027.09
2022-12-20T03:23:43.050Z,100014.03
2022-12-20T03:26:11.215Z,100015.00
2022-12-20T03:28:42.871Z,100012.97
2022-12-20T03:31:12.749Z,100010.25
2022-12-20T03:33:45.819Z,100004.13
2022-12-20T03:36:12.571Z,100004.50
2022-12-20T03:38:39.359Z,100010.06
2022-12-20T03:41:07.666Z,100028.94
2022-12-20T03:43:34.628Z,100024.84
2022-12-20T03:46:01.318Z,100014.38
2022-12-20T03:48:32.483Z,100023.59
2022-12-20T03:50:59.309Z,100016.91
2022-12-20T03:53:25.956Z,100026.50
2022-12-20T03:55:52.803Z,100015.28
2022-12-20T03:58:19.434Z,100021.72
2022-12-20T04:00:46.123Z,100038.59
2022-12-20T04:03:32.733Z,100026.25
2022-12-20T04:05:59.383Z,100034.38
2022-12-20T04:08:27.059Z,100031.53
2022-12-20T04:11:12.244Z,100035.78
2022-12-20T04:13:42.420Z,100027.84
2022-12-20T04:16:10.343Z,100038.53
2022-12-20T04:18:37.359Z,100043.94
2022-12-20T04:21:07.127Z,100042.44
2022-12-20T04:23:38.369Z,100045.25
2022-12-20T04:26:06.510Z,100052.38
2022-12-20T04:28:34.147Z,100053.00
2022-12-20T04:31:01.279Z,100044.78
2022-12-20T04:33:30.325Z,100044.94
2022-12-20T04:35:57.268Z,100049.41
2022-12-20T04:38:25.284Z,100038.94
2022-12-20T04:40:54.850Z,100030.78
2022-12-20T04:43:24.552Z,100025.50
2022-12-20T04:45:56.284Z,100035.72
2022-12-20T04:51:13.816Z,100037.78
2022-12-20T04:53:49.944Z,100029.22
2022-12-20T04:56:35.063Z,100025.72
2022-12-20T04:59:08.630Z,100023.91
2022-12-20T05:01:36.185Z,100008.53
2022-12-20T05:04:03.530Z,100014.25
2022-12-20T05:06:34.181Z,100007.19
2022-12-20T05:09:01.075Z,99984.56
2022-12-20T05:11:27.990Z,99993.34
2022-12-20T05:13:54.770Z,99997.72
2022-12-20T05:16:21.810Z,99985.50
2022-12-20T05:18:49.809Z,99989.41
2022-12-20T05:21:36.908Z,99992.56
2022-12-20T05:24:23.448Z,99992.00
2022-12-20T05:27:17.438Z,99992.25
2022-12-20T05:29:44.121Z,99985.03
2022-12-20T05:32:10.829Z,99993.97
2022-12-20T05:34:40.721Z,99993.16
2022-12-20T05:37:07.357Z,99987.06
2022-12-20T05:39:36.613Z,100001.16
2022-12-20T05:42:09.154Z,99995.63
2022-12-20T05:44:36.807Z,99988.88
2022-12-20T05:47:03.545Z,99993.66
2022-12-20T05:49:33.463Z,99994.03
2022-12-20T05:52:02.689Z,99998.59
2022-12-20T05:54:29.760Z,99999.91
2022-12-20T05:57:04.803Z,99990.69
2022-12-20T05:59:37.308Z,99990.31
2022-12-20T06:02:06.363Z,99992.56
2022-12-20T06:04:34.182Z,99996.88
2022-12-20T06:07:05.576Z,99974.66
2022-12-20T06:09:32.872Z,99984.25
2022-12-20T06:12:06.947Z,99969.97
2022-12-20T06:14:34.426Z,99963.75
2022-12-20T06:17:02.248Z,99972.53
2022-12-20T06:19:30.270Z,99976.78
2022-12-20T06:22:00.766Z,99972.78
2022-12-20T06:24:36.515Z,99971.22
2022-12-20T06:27:03.616Z,99975.69
2022-12-20T06:29:31.127Z,99973.63
2022-12-20T06:32:06.995Z,99968.97
2022-12-20T06:34:33.823Z,99963.69
2022-12-20T06:37:01.156Z,99975.66
2022-12-20T06:39:31.050Z,99961.25
2022-12-20T06:42:05.074Z,99974.66
2022-12-20T06:44:33.025Z,99966.25
2022-12-20T06:46:59.638Z,99964.00
2022-12-20T06:49:26.611Z,99954.16
2022-12-20T06:51:53.453Z,99962.31
2022-12-20T06:54:25.670Z,99977.44
2022-12-20T06:56:52.352Z,99981.41
2022-12-20T06:59:19.583Z,99954.25
2022-12-20T07:01:46.503Z,99953.81
2022-12-20T07:04:13.307Z,99967.34
2022-12-20T07:06:39.847Z,99975.28
2022-12-20T07:09:06.485Z,99943.44
2022-12-20T07:11:33.159Z,99946.94
2022-12-20T07:13:59.889Z,99949.59
2022-12-20T07:16:26.793Z,99951.50
2022-12-20T07:18:53.643Z,99955.81
2022-12-20T07:21:20.784Z,99954.78
2022-12-20T07:23:47.822Z,99963.03
2022-12-20T07:26:15.333Z,99957.94
2022-12-20T07:28:42.765Z,99962.41
2022-12-20T07:31:09.376Z,99967.28
2022-12-20T07:33:37.328Z,99966.09
2022-12-20T07:36:08.883Z,99968.34
2022-12-20T07:38:35.750Z,99970.97
2022-12-20T07:41:30.078Z,99977.09
2022-12-20T07:43:58.890Z,99975.28
2022-12-20T07:46:25.600Z,99969.50
2022-12-20T07:48:52.507Z,99956.72
2022-12-20T07:51:25.821Z,99958.19
2022-12-20T07:54:05.267Z,99958.56
2022-12-20T07:56:40.522Z,99950.13
2022-12-20T07:59:08.387Z,99935.34
2022-12-20T08:01:35.531Z,99950.56
2022-12-20T08:04:13.548Z,99944.34
2022-12-20T08:06:41.156Z,99947.59
2022-12-20T08:09:09.266Z,99948.44
2022-12-20T08:11:37.174Z,99941.84
2022-12-20T08:14:05.176Z,99928.66
2022-12-20T08:16:31.865Z,99939.56
2022-12-20T08:18:58.482Z,99927.88
2022-12-20T08:21:25.127Z,99938.94
2022-12-20T08:23:51.981Z,99933.88
2022-12-20T08:26:18.692Z,99930.44
2022-12-20T08:28:45.292Z,99932.47
2022-12-20T08:31:12.871Z,99926.09
2022-12-20T08:33:40.328Z,99942.97
2022-12-20T08:36:09.812Z,99925.75
2022-12-20T08:38:37.155Z,99924.53
2022-12-20T08:41:05.737Z,99921.47
2022-12-20T08:43:33.744Z,99912.66
2022-12-20T08:46:00.996Z,99921.25
2022-12-20T08:48:27.977Z,99927.00
2022-12-20T08:51:01.113Z,99926.81
2022-12-20T08:53:29.462Z,99920.25
2022-12-20T08:56:17.759Z,99904.44
2022-12-20T08:58:45.109Z,99912.09
2022-12-20T09:01:13.961Z,99915.22
2022-12-20T09:03:41.145Z,99901.88
2022-12-20T09:06:13.615Z,99905.97
2022-12-20T09:08:41.075Z,99907.22
2022-12-20T09:11:10.068Z,99893.66
2022-12-20T09:13:43.460Z,99902.06
2022-12-20T09:16:12.884Z,99901.88
2022-12-20T09:18:39.746Z,99920.78
2022-12-20T09:21:07.672Z,99909.91
2022-12-20T09:23:35.690Z,99898.59
2022-12-20T09:26:07.956Z,99911.13
2022-12-20T09:28:34.847Z,99901.06
2022-12-20T09:31:06.419Z,99910.91
2022-12-20T09:33:34.290Z,99911.31
2022-12-20T09:36:01.644Z,99910.94
2022-12-20T09:38:29.610Z,99894.91
2022-12-20T09:41:00.560Z,99901.50
2022-12-20T09:43:27.812Z,99902.28
2022-12-20T09:45:59.791Z,99895.69
2022-12-20T09:48:30.700Z,99884.81
2022-12-20T09:51:09.528Z,99883.56
2022-12-20T09:53:56.895Z,99880.25
2022-12-20T09:56:45.291Z,99877.56
2022-12-20T09:59:14.980Z,99882.25
2022-12-20T10:01:47.381Z,99863.66
2022-12-20T10:04:24.848Z,99851.06
2022-12-20T10:07:14.600Z,99864.34
2022-12-20T10:09:59.493Z,99871.09
2022-12-20T10:12:36.604Z,99867.72
2022-12-20T10:15:34.076Z,99864.66
2022-12-20T10:18:06.692Z,99878.03
2022-12-20T10:20:54.912Z,99864.53
2022-12-20T10:23:35.765Z,99875.78
2022-12-20T10:26:05.111Z,99865.56
2022-12-20T10:28:34.798Z,99873.19
2022-12-20T10:31:16.238Z,99860.72
2022-12-20T10:33:43.709Z,99859.88
2022-12-20T10:36:27.326Z,99854.00
2022-12-20T10:38:58.867Z,99856.50
2022-12-20T10:41:28.136Z,99849.81
2022-12-20T10:43:56.401Z,99847.31
2022-12-20T10:46:24.220Z,99853.72
2022-12-20T10:48:51.670Z,99853.63
2022-12-20T10:51:21.208Z,99840.88
2022-12-20T10:54:03.206Z,99847.28
2022-12-20T10:56:32.087Z,99844.50
2022-12-20T10:59:00.045Z,99842.50
2022-12-20T11:01:32.670Z,99851.22
2022-12-20T11:04:05.670Z,99836.47
2022-12-20T11:06:38.700Z,99831.25
2022-12-20T11:09:33.417Z,99836.91
2022-12-20T11:12:14.406Z,99841.78
2022-12-20T11:14:45.459Z,99828.81
2022-12-20T11:17:22.323Z,99833.19
2022-12-20T11:19:54.664Z,99841.38
2022-12-20T11:22:49.243Z,99833.13
2022-12-20T11:25:43.792Z,99835.41
2022-12-20T11:28:27.496Z,99831.06
2022-12-20T11:31:07.244Z,99817.97
2022-12-20T11:33:46.181Z,99826.47
2022-12-20T11:36:23.028Z,99821.34
2022-12-20T11:38:55.849Z,99817.34
2022-12-20T11:41:45.576Z,99811.56
2022-12-20T11:44:29.044Z,99798.59
2022-12-20T11:47:10.872Z,99806.59
2022-12-20T11:49:52.868Z,99793.06
2022-12-20T11:52:25.657Z,99790.78
2022-12-20T11:55:13.914Z,99798.22
2022-12-20T11:58:17.026Z,99786.06
2022-12-20T12:00:36.000Z,99785.31
2022-12-20T12:03:14.950Z,99784.78
2022-12-20T12:05:47.692Z,99783.09
2022-12-20T12:08:29.398Z,99778.00
2022-12-20T12:11:25.447Z,99781.09
2022-12-20T12:13:55.723Z,99778.41
2022-12-20T12:16:35.167Z,99760.19
2022-12-20T12:19:02.243Z,99768.78
2022-12-20T12:21:35.119Z,99776.97
2022-12-20T12:24:12.211Z,99775.34
2022-12-20T12:26:40.957Z,99766.72
2022-12-20T12:29:13.445Z,99752.41
2022-12-20T12:31:46.115Z,99741.59
2022-12-20T12:34:50.403Z,99752.16
2022-12-20T12:37:19.633Z,99754.63
2022-12-20T12:40:16.224Z,99734.84
2022-12-20T12:43:08.186Z,99736.03
2022-12-20T12:45:38.603Z,99750.72
2022-12-20T12:48:17.712Z,99750.34
2022-12-20T12:50:50.329Z,99754.50
2022-12-20T12:53:29.897Z,99753.16
2022-12-20T12:56:12.934Z,99752.75
2022-12-20T12:58:48.729Z,99759.78
2022-12-20T13:01:54.426Z,99754.00
2022-12-20T13:04:23.970Z,99755.50
2022-12-20T13:06:50.565Z,99757.03
2022-12-20T13:09:26.206Z,99752.50
2022-12-20T13:12:00.371Z,99743.25
2022-12-20T13:14:28.837Z,99740.19
2022-12-20T13:17:24.041Z,99735.47
2022-12-20T13:19:54.110Z,99736.06
2022-12-20T13:22:23.201Z,99734.19
2022-12-20T13:24:56.245Z,99743.66
2022-12-20T13:27:40.506Z,99739.16
2022-12-20T13:30:07.072Z,99744.41
2022-12-20T13:32:48.718Z,99748.84
2022-12-20T13:35:24.915Z,99753.00
2022-12-20T13:37:54.875Z,99752.78
2022-12-20T13:40:55.650Z,99762.53
2022-12-20T13:43:23.270Z,99757.25
2022-12-20T13:45:52.415Z,99758.28
2022-12-20T13:48:24.119Z,99755.63
2022-12-20T13:50:55.240Z,99749.94
2022-12-20T13:53:24.799Z,99744.13
2022-12-20T13:55:51.386Z,99753.81
2022-12-20T13:58:20.451Z,99758.00
2022-12-20T14:00:48.732Z,99764.22
2022-12-20T14:03:26.918Z,99751.88
2022-12-20T14:05:59.302Z,99753.72
2022-12-20T14:08:29.239Z,99744.06
2022-12-20T14:10:55.879Z,99740.78
2022-12-20T14:13:24.665Z,99739.16
2022-12-20T14:15:52.147Z,99741.19
2022-12-20T14:18:21.853Z,99743.66
2022-12-20T14:20:59.666Z,99737.88
2022-12-20T14:23:33.923Z,99735.44
2022-12-20T14:26:02.125Z,99736.25
2022-12-20T14:28:39.343Z,99731.56
2022-12-20T14:31:07.791Z,99731.97
2022-12-20T14:33:35.852Z,99736.94
2022-12-20T14:36:09.503Z,99729.78
2022-12-20T14:38:36.329Z,99732.44
2022-12-20T14:41:02.986Z,99726.06
2022-12-20T14:43:34.082Z,99713.50
2022-12-20T14:46:20.941Z,99714.09
2022-12-20T14:48:47.601Z,99708.53
2022-12-20T14:51:20.869Z,99701.47
2022-12-20T14:53:49.031Z,99701.91
2022-12-20T14:56:18.706Z,99682.75
2022-12-20T14:58:45.531Z,99681.63
2022-12-20T15:01:15.136Z,99684.03
2022-12-20T15:03:52.850Z,99683.97
2022-12-20T15:06:35.610Z,99697.50
2022-12-20T15:09:02.758Z,99686.91
2022-12-20T15:11:29.766Z,99688.63
2022-12-20T15:13:57.016Z,99691.06
2022-12-20T15:16:26.115Z,99699.50
2022-12-20T15:18:55.600Z,99695.44
2022-12-20T15:21:42.733Z,99696.47
2022-12-20T15:24:15.168Z,99691.91
2022-12-20T15:26:41.883Z,99687.66
2022-12-20T15:29:28.059Z,99693.78
2022-12-20T15:32:06.532Z,99700.84
2022-12-20T15:34:38.324Z,99702.88
2022-12-20T15:37:06.307Z,99692.34
2022-12-20T15:39:33.661Z,99693.94
2022-12-20T15:42:01.854Z,99694.50
2022-12-20T15:44:30.609Z,99699.44
2022-12-20T15:46:57.433Z,99707.97
2022-12-20T15:49:33.275Z,99706.56
2022-12-20T15:51:59.909Z,99711.13
2022-12-20T15:54:35.754Z,99708.56
2022-12-20T15:57:07.444Z,99710.88
2022-12-20T16:02:22.929Z,99709.41
2022-12-20T16:04:50.531Z,99703.53
2022-12-20T16:07:17.449Z,99697.50
2022-12-20T16:09:44.165Z,99695.94
2022-12-20T16:12:15.996Z,99698.78
2022-12-20T16:14:42.738Z,99678.78
2022-12-20T16:17:16.024Z,99684.31
2022-12-20T16:19:43.454Z,99686.63
2022-12-20T16:22:22.165Z,99683.50
2022-12-20T16:24:49.244Z,99677.22
2022-12-20T16:27:15.903Z,99678.63
2022-12-20T16:29:42.550Z,99678.25
2022-12-20T16:32:19.754Z,99676.63
2022-12-20T16:34:46.953Z,99670.41
2022-12-20T16:37:13.798Z,99657.22
2022-12-20T16:39:41.109Z,99666.16
2022-12-20T16:42:15.437Z,99667.13
2022-12-20T16:44:45.328Z,99663.91
2022-12-20T16:47:13.470Z,99674.00
2022-12-20T16:49:47.322Z,99673.16
2022-12-20T16:52:19.067Z,99678.72
2022-12-20T16:54:45.734Z,99690.69
2022-12-20T16:57:12.364Z,99687.84
2022-12-20T16:59:39.018Z,99686.56
2022-12-20T17:02:19.930Z,99689.84
2022-12-20T17:04:46.905Z,99691.13
2022-12-20T17:07:13.556Z,99693.19
2022-12-20T17:09:40.187Z,99697.28
2022-12-20T17:12:15.411Z,99703.41
2022-12-20T17:14:43.046Z,99698.06
2022-12-20T17:17:09.801Z,99704.06
2022-12-20T17:19:37.520Z,99703.22
2022-12-20T17:24:48.355Z,99703.66
2022-12-20T17:27:15.202Z,99712.28
2022-12-20T17:29:42.048Z,99710.63
2022-12-20T17:32:20.938Z,99699.94
2022-12-20T17:34:47.638Z,99689.06
2022-12-20T17:37:14.348Z,99697.88
2022-12-20T17:39:40.982Z,99692.53
2022-12-20T17:42:12.124Z,99688.66
2022-12-20T17:44:38.782Z,99680.84
2022-12-20T17:47:06.402Z,99676.31
2022-12-20T17:49:33.320Z,99675.28
2022-12-20T17:52:00.178Z,99673.06
2022-12-20T17:54:32.100Z,99671.19
2022-12-20T17:57:03.642Z,99658.47
2022-12-20T17:59:30.676Z,99653.28
2022-12-20T18:01:57.554Z,99642.59
2022-12-20T18:04:24.485Z,99636.03
2022-12-20T18:06:52.335Z,99626.84
2022-12-20T18:09:22.258Z,99630.91
2022-12-20T18:11:49.480Z,99616.28
2022-12-20T18:14:16.241Z,99611.75
2022-12-20T18:16:43.100Z,99608.69
2022-12-20T18:19:16.567Z,99609.31
2022-12-20T18:21:43.630Z,99599.25
2022-12-20T18:24:15.270Z,99597.41
2022-12-20T18:26:42.514Z,99598.88
2022-12-20T18:29:09.929Z,99601.53
2022-12-20T18:31:36.715Z,99597.44
2022-12-20T18:34:03.744Z,99597.66
2022-12-20T18:36:34.317Z,99603.84
2022-12-20T18:39:02.089Z,99597.72
2022-12-20T18:41:30.164Z,99595.47
2022-12-20T18:44:02.509Z,99587.03
2022-12-20T18:46:30.062Z,99585.41
2022-12-20T18:48:58.296Z,99586.84
2022-12-20T18:51:27.911Z,99589.94
2022-12-20T18:53:56.442Z,99595.09
2022-12-20T18:56:25.345Z,99595.06
2022-12-20T18:58:52.640Z,99593.63
2022-12-20T19:01:21.781Z,99601.03
2022-12-20T19:03:50.691Z,99597.16
2022-12-20T19:06:18.048Z,99599.41
2022-12-20T19:08:44.907Z,99609.03
2022-12-20T19:11:14.133Z,99608.00
2022-12-20T19:13:41.776Z,99608.41
2022-12-20T19:16:12.009Z,99616.22
2022-12-20T19:18:39.696Z,99623.59
2022-12-20T19:21:13.712Z,99617.44
2022-12-20T19:23:41.667Z,99623.19
2022-12-20T19:26:10.084Z,99615.38
2022-12-20T19:28:36.772Z,99616.81
2022-12-20T19:31:17.382Z,99623.16
2022-12-20T19:33:47.902Z,99630.94
2022-12-20T19:36:20.412Z,99641.41
2022-12-20T19:38:50.270Z,99638.53
2022-12-20T19:41:17.973Z,99642.84
2022-12-20T19:43:45.056Z,99651.47
2022-12-20T19:46:11.677Z,99651.25
2022-12-20T19:48:38.729Z,99653.31
2022-12-20T19:51:11.680Z,99636.09
2022-12-20T19:53:39.769Z,99656.34
2022-12-20T19:56:10.240Z,99667.88
2022-12-20T19:58:37.782Z,99667.69
2022-12-20T20:01:05.654Z,99670.34
2022-12-20T20:03:32.807Z,99674.41
2022-12-20T20:05:59.625Z,99689.41
2022-12-20T20:08:26.286Z,99692.88
2022-12-20T20:10:57.627Z,99699.63
2022-12-20T20:13:26.512Z,99696.16
2022-12-20T20:16:01.378Z,99698.59
2022-12-20T20:18:28.689Z,99708.03
2022-12-20T20:20:55.911Z,99705.97
2022-12-20T20:23:23.179Z,99711.53
2022-12-20T20:25:56.895Z,99718.91
2022-12-20T20:28:31.315Z,99718.28
2022-12-20T20:30:59.399Z,99711.72
2022-12-20T20:33:26.192Z,99707.41
2022-12-20T20:35:57.179Z,99719.47
2022-12-20T20:40:50.911Z,99727.44
2022-12-20T20:43:17.871Z,99727.66
2022-12-20T20:45:44.511Z,99718.41
2022-12-20T20:48:11.384Z,99741.09
2022-12-20T20:50:38.009Z,99733.88
2022-12-20T20:53:04.909Z,99737.22
2022-12-20T20:55:31.548Z,99732.75
2022-12-20T20:57:58.370Z,99740.34
2022-12-20T21:00:25.278Z,99749.31
2022-12-20T21:02:51.993Z,99761.00
2022-12-20T21:08:05.796Z,99750.06
2022-12-20T21:10:32.619Z,99761.56
2022-12-20T21:12:59.400Z,99745.41
2022-12-20T21:15:28.021Z,99740.91
2022-12-20T21:17:55.185Z,99754.03
2022-12-20T21:20:25.957Z,99750.56
2022-12-20T21:22:53.547Z,99753.75
2022-12-20T21:25:20.245Z,99749.66
2022-12-20T21:27:46.946Z,99752.34
2022-12-20T21:30:13.575Z,99752.53
2022-12-20T21:32:40.331Z,99757.25
2022-12-20T21:35:07.332Z,99760.09
2022-12-20T21:37:33.935Z,99753.16
2022-12-20T21:40:00.610Z,99750.06
2022-12-20T21:42:27.348Z,99739.19
2022-12-20T21:44:54.013Z,99739.63
2022-12-20T21:47:20.648Z,99742.06
2022-12-20T21:49:47.316Z,99742.00
2022-12-20T21:52:14.158Z,99740.19
2022-12-20T21:54:40.821Z,99743.88
2022-12-20T21:57:07.450Z,99745.13
2022-12-20T21:59:34.135Z,99738.16
2022-12-20T22:02:01.129Z,99739.88
2022-12-20T22:04:28.040Z,99747.75
2022-12-20T22:06:54.681Z,99758.44
2022-12-20T22:09:21.407Z,99754.50
2022-12-20T22:11:48.644Z,99754.94
2022-12-20T22:14:16.057Z,99754.94
2022-12-20T22:16:43.536Z,99770.78
2022-12-20T22:19:12.889Z,99768.94
2022-12-20T22:21:39.545Z,99775.88
2022-12-20T22:24:06.481Z,99771.78
2022-12-20T22:26:33.608Z,99767.66
2022-12-20T22:29:02.382Z,99774.91
2022-12-20T22:31:30.459Z,99767.47
2022-12-20T22:33:58.030Z,99773.22
2022-12-20T22:36:25.222Z,99774.25
2022-12-20T22:38:53.109Z,99778.59
2022-12-20T22:41:22.750Z,99791.97
2022-12-20T22:43:50.050Z,99805.50
2022-12-20T22:46:17.802Z,99789.72
2022-12-20T22:48:44.971Z,99794.41
2022-12-20T22:51:14.285Z,99802.84
2022-12-20T22:53:41.504Z,99841.47
2022-12-20T22:56:08.873Z,99855.63
2022-12-20T22:58:36.762Z,99891.00
2022-12-20T23:01:05.558Z,99911.50
2022-12-20T23:03:32.496Z,99918.91
2022-12-20T23:06:00.949Z,99934.28
2022-12-20T23:08:30.079Z,99955.06
2022-12-20T23:11:15.839Z,99952.97
2022-12-20T23:14:15.265Z,99957.06
2022-12-20T23:16:45.008Z,99952.19
2022-12-20T23:19:11.963Z,99959.16
2022-12-20T23:21:57.407Z,99963.66
2022-12-20T23:24:24.105Z,99964.78
2022-12-20T23:26:50.708Z,99971.31
2022-12-20T23:29:17.404Z,99968.47
2022-12-20T23:31:46.312Z,99967.78
2022-12-20T23:34:13.501Z,99980.06
2022-12-20T23:36:40.849Z,99985.03
2022-12-20T23:39:07.972Z,99989.09
2022-12-20T23:41:34.781Z,99995.34
2022-12-20T23:44:03.800Z,99990.19
2022-12-20T23:46:30.554Z,99998.19
2022-12-20T23:48:57.308Z,99999.22
2022-12-20T23:51:23.907Z,100001.66
2022-12-20T23:53:51.715Z,99999.56
2022-12-20T23:56:21.019Z,100013.75
2022-12-20T23:58:53.104Z,100020.72
